Time;durP1;ratioP1;P1;durP2;ratioP2;P2;SDS_P1;SDS_P2;PMS_P1;PMS_P2;Temp;Humidity;BMP_temperature;BMP_pressure;BME280_temperature;BME280_humidity;BME280_pressure;Samples;Min_cycle;Max_cycle;Signal;HPM_P1;HPM_P2
2024/02/04 00:01:01;;;;;;;7.53;3.10;;;10.60;99.90;;;;;;4916561;29;20221;-77
2024/02/04 00:03:30;;;;;;;9.90;2.95;;;10.60;99.90;;;;;;4916946;29;20711;-77
2024/02/04 00:05:57;;;;;;;6.18;2.25;;;10.50;99.90;;;;;;4916854;29;20251;-75
2024/02/04 00:08:24;;;;;;;7.88;3.15;;;10.50;99.90;;;;;;4917575;29;20273;-76
2024/02/04 00:10:52;;;;;;;13.00;3.67;;;10.50;99.90;;;;;;4916475;29;20225;-77
2024/02/04 00:13:19;;;;;;;7.65;2.60;;;10.50;99.90;;;;;;4916565;29;20233;-77
2024/02/04 00:15:46;;;;;;;8.65;3.10;;;10.50;99.90;;;;;;4916375;29;20233;-77
2024/02/04 00:18:13;;;;;;;10.13;3.22;;;10.50;99.90;;;;;;4917070;29;20232;-77
2024/02/04 00:20:40;;;;;;;15.52;5.13;;;10.50;99.90;;;;;;4915674;29;20248;-76
2024/02/04 00:23:07;;;;;;;9.13;6.20;;;10.50;99.90;;;;;;4917269;29;20285;-75
2024/02/04 00:25:35;;;;;;;11.63;6.32;;;10.50;99.90;;;;;;4936365;29;20228;-76
2024/02/04 00:28:03;;;;;;;10.55;6.35;;;10.50;99.90;;;;;;4934483;29;20343;-76
2024/02/04 00:30:30;;;;;;;17.45;5.07;;;10.50;99.90;;;;;;4936420;29;20553;-76
2024/02/04 00:33:02;;;;;;;8.50;3.35;;;10.50;99.90;;;;;;4935380;29;20232;-76
2024/02/04 00:35:32;;;;;;;6.05;2.90;;;10.50;99.90;;;;;;4936078;29;20220;-75
2024/02/04 00:37:59;;;;;;;5.43;2.28;;;10.50;99.90;;;;;;4934013;29;20239;-76
2024/02/04 00:40:27;;;;;;;8.73;3.35;;;10.40;99.90;;;;;;4935088;29;20240;-76
2024/02/04 00:42:54;;;;;;;6.65;3.25;;;10.30;99.90;;;;;;4933063;29;20233;-75
2024/02/04 00:45:23;;;;;;;14.10;4.28;;;10.30;99.90;;;;;;4936086;29;20752;-75
2024/02/04 00:47:50;;;;;;;10.80;6.20;;;10.30;99.90;;;;;;4935294;29;20251;-76
2024/02/04 00:50:17;;;;;;;8.63;3.05;;;10.20;99.90;;;;;;4931369;29;20257;-77
2024/02/04 00:52:44;;;;;;;13.82;3.60;;;10.20;99.90;;;;;;4916716;29;20276;-75
2024/02/04 00:55:14;;;;;;;6.65;3.45;;;10.10;99.90;;;;;;4919417;29;20232;-75
2024/02/04 00:57:41;;;;;;;5.38;3.42;;;10.10;99.90;;;;;;4920563;29;20241;-75
2024/02/04 01:00:10;;;;;;;6.63;2.72;;;10.10;99.90;;;;;;4919972;29;20229;-75
2024/02/04 01:02:38;;;;;;;9.10;3.08;;;10.00;99.90;;;;;;4920377;29;20237;-74
2024/02/04 01:05:06;;;;;;;13.57;3.63;;;10.00;99.90;;;;;;4919804;29;20229;-75
2024/02/04 01:07:33;;;;;;;9.35;3.72;;;10.00;99.90;;;;;;4920710;29;20225;-76
2024/02/04 01:10:01;;;;;;;11.15;3.10;;;10.00;99.90;;;;;;4919875;29;20257;-77
2024/02/04 01:12:27;;;;;;;11.77;3.30;;;10.00;99.90;;;;;;4920249;29;20243;-76
2024/02/04 01:14:58;;;;;;;6.47;2.95;;;10.00;99.90;;;;;;4919757;29;20226;-76
2024/02/04 01:17:26;;;;;;;7.90;2.58;;;10.00;99.90;;;;;;4939088;29;20242;-76
2024/02/04 01:19:55;;;;;;;9.27;4.47;;;10.00;99.90;;;;;;4938843;29;20329;-75
2024/02/04 01:22:26;;;;;;;8.05;3.80;;;10.00;99.90;;;;;;4939110;29;20623;-75
2024/02/04 01:24:53;;;;;;;10.25;5.05;;;9.90;99.90;;;;;;4938945;29;20228;-76
2024/02/04 01:27:20;;;;;;;10.23;4.70;;;10.00;99.90;;;;;;4932400;29;20225;-77
2024/02/04 01:29:47;;;;;;;9.52;4.60;;;9.90;99.90;;;;;;4919080;29;20237;-77
2024/02/04 01:32:14;;;;;;;14.68;5.85;;;9.90;99.90;;;;;;4919710;29;20236;-77
2024/02/04 01:34:42;;;;;;;13.63;4.35;;;9.90;99.90;;;;;;4919968;29;20630;-77
2024/02/04 01:37:10;;;;;;;7.68;3.15;;;10.00;99.90;;;;;;4919363;29;20323;-75
2024/02/04 01:39:37;;;;;;;5.38;2.60;;;10.00;99.90;;;;;;4920276;29;20285;-77
2024/02/04 01:42:05;;;;;;;10.38;3.80;;;10.00;99.90;;;;;;4919603;29;20233;-77
2024/02/04 01:44:32;;;;;;;5.82;2.10;;;10.00;99.90;;;;;;4920103;29;20222;-75
2024/02/04 01:46:59;;;;;;;8.32;3.20;;;10.00;99.90;;;;;;4919546;29;20233;-75
2024/02/04 01:49:26;;;;;;;8.02;2.75;;;10.00;99.90;;;;;;4919428;29;20256;-75
2024/02/04 01:51:54;;;;;;;7.10;2.45;;;10.00;99.90;;;;;;4919208;29;20287;-76
2024/02/04 01:54:25;;;;;;;9.60;3.47;;;10.00;99.90;;;;;;4920019;29;20226;-75
2024/02/04 01:59:35;;;;;;;7.38;2.17;;;10.00;99.90;;;;;;4917818;29;20229;-76
2024/02/04 02:02:02;;;;;;;6.82;2.60;;;10.00;99.90;;;;;;4909978;29;20230;-75
2024/02/04 02:04:30;;;;;;;8.75;3.20;;;10.00;99.90;;;;;;4899525;29;20264;-77
2024/02/04 02:06:59;;;;;;;5.88;2.22;;;10.00;99.90;;;;;;4898490;29;20237;-75
2024/02/04 02:09:29;;;;;;;5.10;3.08;;;10.00;99.90;;;;;;4910908;29;20308;-75
2024/02/04 02:12:05;;;;;;;7.68;3.03;;;10.00;99.90;;;;;;4912028;29;20237;-76
2024/02/04 02:14:37;;;;;;;9.88;2.85;;;10.10;99.90;;;;;;4918562;29;20300;-75
2024/02/04 02:17:07;;;;;;;10.70;3.47;;;10.10;99.90;;;;;;4918908;29;20221;-76
2024/02/04 02:19:45;;;;;;;7.30;2.75;;;10.20;99.90;;;;;;4917101;29;20375;-76
2024/02/04 02:22:26;;;;;;;9.07;2.80;;;10.20;99.90;;;;;;4918570;29;20253;-76
2024/02/04 02:24:58;;;;;;;12.85;2.95;;;10.20;99.90;;;;;;4917557;29;20292;-76
2024/02/04 02:27:25;;;;;;;7.95;2.55;;;10.20;99.90;;;;;;4915717;29;20688;-76
2024/02/04 02:29:53;;;;;;;8.43;2.35;;;10.20;99.90;;;;;;4908503;29;20308;-75
2024/02/04 02:32:20;;;;;;;7.93;3.03;;;10.30;99.90;;;;;;4918482;29;20230;-76
2024/02/04 02:34:48;;;;;;;13.65;5.35;;;10.30;99.90;;;;;;4911809;29;20735;-76
2024/02/04 02:37:23;;;;;;;4.85;3.65;;;10.20;99.90;;;;;;4899647;29;20222;-76
2024/02/04 02:39:59;;;;;;;10.73;3.10;;;10.30;99.90;;;;;;4908843;29;20249;-76
2024/02/04 02:42:27;;;;;;;7.18;3.25;;;10.30;99.90;;;;;;4919006;29;20241;-75
2024/02/04 02:44:58;;;;;;;6.75;2.65;;;10.30;99.90;;;;;;4911898;29;20222;-76
2024/02/04 02:47:26;;;;;;;4.35;2.80;;;10.30;99.90;;;;;;4899817;29;20226;-76
2024/02/04 02:49:54;;;;;;;9.32;4.05;;;10.30;99.90;;;;;;4908894;29;20233;-76
2024/02/04 02:52:21;;;;;;;8.88;2.60;;;10.30;99.90;;;;;;4917849;29;20729;-77
2024/02/04 02:54:49;;;;;;;8.40;2.53;;;10.30;99.90;;;;;;4915336;29;20233;-77
2024/02/04 02:57:20;;;;;;;9.43;3.65;;;10.30;99.90;;;;;;4914110;29;20236;-77
2024/02/04 02:59:47;;;;;;;9.98;3.10;;;10.30;99.90;;;;;;4910487;29;20253;-77
2024/02/04 03:02:17;;;;;;;6.32;2.38;;;10.30;99.90;;;;;;4907546;29;20684;-77
2024/02/04 03:04:44;;;;;;;9.95;2.85;;;10.30;99.90;;;;;;4908029;29;20234;-76
2024/02/04 03:07:14;;;;;;;5.07;2.90;;;10.30;99.90;;;;;;4915212;29;20589;-77
2024/02/04 03:09:41;;;;;;;11.00;3.08;;;10.20;99.90;;;;;;4918292;29;20230;-76
2024/02/04 03:12:08;;;;;;;7.72;2.47;;;10.20;99.90;;;;;;4917709;29;20236;-77
2024/02/04 03:14:44;;;;;;;5.65;2.60;;;10.20;99.90;;;;;;4918383;29;20312;-77
2024/02/04 03:17:12;;;;;;;7.55;2.70;;;10.20;99.90;;;;;;4916936;29;20312;-77
2024/02/04 03:19:39;;;;;;;10.65;3.60;;;10.20;99.90;;;;;;4918016;29;20332;-76
2024/02/04 03:22:06;;;;;;;5.47;2.78;;;10.20;99.90;;;;;;4917655;29;20583;-75
2024/02/04 03:24:33;;;;;;;5.80;2.65;;;10.20;99.90;;;;;;4918192;29;20564;-76
2024/02/04 03:27:00;;;;;;;5.75;3.10;;;10.10;99.90;;;;;;4916955;29;20233;-76
2024/02/04 03:29:27;;;;;;;5.90;2.80;;;10.20;99.90;;;;;;4918047;29;20233;-76
2024/02/04 03:31:56;;;;;;;6.15;3.10;;;10.10;99.90;;;;;;4917751;29;20267;-76
2024/02/04 03:34:23;;;;;;;8.38;2.85;;;10.10;99.90;;;;;;4917551;29;20564;-76
2024/02/04 03:36:50;;;;;;;9.27;3.25;;;10.10;99.90;;;;;;4917801;29;20240;-76
2024/02/04 03:39:17;;;;;;;5.50;3.20;;;10.10;99.90;;;;;;4917302;29;20584;-77
2024/02/04 03:41:44;;;;;;;6.60;3.67;;;10.20;99.90;;;;;;4917863;29;20226;-77
2024/02/04 03:44:11;;;;;;;6.50;3.60;;;10.20;99.90;;;;;;4917407;29;20244;-75
2024/02/04 03:46:39;;;;;;;10.73;5.07;;;10.20;99.90;;;;;;4917613;29;20229;-77
2024/02/04 03:49:08;;;;;;;4.88;3.10;;;10.10;99.90;;;;;;4917270;29;20233;-77
2024/02/04 03:51:35;;;;;;;8.25;3.20;;;10.20;99.90;;;;;;4917265;29;20243;-77
2024/02/04 03:54:03;;;;;;;8.65;3.67;;;10.20;99.90;;;;;;4906311;29;20237;-77
2024/02/04 03:56:30;;;;;;;11.23;5.82;;;10.20;99.90;;;;;;4917097;29;20572;-76
2024/02/04 03:58:57;;;;;;;10.70;3.40;;;10.20;99.90;;;;;;4917588;29;20239;-77
2024/02/04 04:01:25;;;;;;;4.93;3.25;;;10.20;99.90;;;;;;4916927;29;20229;-77
2024/02/04 04:03:52;;;;;;;9.57;3.03;;;10.20;99.90;;;;;;4917491;29;20556;-77
2024/02/04 04:06:21;;;;;;;5.93;3.63;;;10.20;99.90;;;;;;4916895;29;20229;-76
2024/02/04 04:08:48;;;;;;;9.02;3.65;;;10.20;99.90;;;;;;4917457;29;20240;-76
2024/02/04 04:11:15;;;;;;;9.57;3.53;;;10.20;99.90;;;;;;4916227;29;20604;-77
2024/02/04 04:13:42;;;;;;;6.45;3.75;;;10.20;99.90;;;;;;4917200;29;20316;-77
2024/02/04 04:16:09;;;;;;;6.97;3.28;;;10.20;99.90;;;;;;4916920;29;20229;-77
2024/02/04 04:18:36;;;;;;;6.80;3.08;;;10.20;99.90;;;;;;4917444;29;20234;-77
2024/02/04 04:21:03;;;;;;;7.00;3.90;;;10.20;99.90;;;;;;4917044;29;20232;-75
2024/02/04 04:23:31;;;;;;;6.88;4.22;;;10.20;99.90;;;;;;4916811;29;20268;-77
2024/02/04 04:26:14;;;;;;;12.75;6.05;;;10.10;99.90;;;;;;4917318;29;20229;-77
2024/02/04 04:28:42;;;;;;;7.95;5.25;;;10.10;99.90;;;;;;4909806;29;20229;-77
2024/02/04 04:31:09;;;;;;;10.07;4.47;;;10.10;99.90;;;;;;4916475;29;20308;-75
2024/02/04 04:33:37;;;;;;;6.75;4.47;;;10.10;99.90;;;;;;4916792;29;20233;-75
2024/02/04 04:36:09;;;;;;;10.15;5.63;;;10.10;99.90;;;;;;4916650;29;20555;-77
2024/02/04 04:38:37;;;;;;;5.88;3.58;;;10.10;99.90;;;;;;4917098;29;20748;-76
2024/02/04 04:41:05;;;;;;;5.20;3.15;;;10.10;99.90;;;;;;4916733;29;20612;-76
2024/02/04 04:43:32;;;;;;;6.55;2.88;;;10.10;99.90;;;;;;4917165;29;20229;-76
2024/02/04 04:45:59;;;;;;;6.88;3.90;;;10.10;99.90;;;;;;4916516;29;20297;-76
2024/02/04 04:48:26;;;;;;;4.05;3.20;;;10.10;99.90;;;;;;4917117;29;20221;-77
2024/02/04 04:50:53;;;;;;;9.95;8.27;;;10.10;99.90;;;;;;4916415;29;20240;-77
2024/02/04 04:53:23;;;;;;;6.25;3.60;;;10.00;99.90;;;;;;4916920;29;20233;-76
2024/02/04 04:55:51;;;;;;;7.03;2.92;;;10.00;99.90;;;;;;4917280;29;20268;-76
2024/02/04 04:58:18;;;;;;;7.93;2.90;;;10.00;99.90;;;;;;4916299;29;20252;-76
2024/02/04 05:00:45;;;;;;;8.00;4.18;;;10.00;99.90;;;;;;4917143;29;20581;-76
2024/02/04 05:03:21;;;;;;;12.05;3.85;;;10.00;99.90;;;;;;4916492;29;20233;-77
2024/02/04 05:05:48;;;;;;;7.65;3.95;;;10.00;99.90;;;;;;4916915;29;20228;-75
2024/02/04 05:08:16;;;;;;;6.70;3.40;;;9.90;99.90;;;;;;4916306;29;20545;-75
2024/02/04 05:10:43;;;;;;;5.65;3.28;;;9.90;99.90;;;;;;4916891;29;20225;-76
2024/02/04 05:13:11;;;;;;;9.27;3.22;;;9.90;99.90;;;;;;4916278;29;20233;-76
2024/02/04 05:15:39;;;;;;;7.57;3.40;;;9.90;99.90;;;;;;4916708;29;20234;-75
2024/02/04 05:18:06;;;;;;;5.50;3.13;;;9.90;99.90;;;;;;4916230;29;20320;-77
2024/02/04 05:20:34;;;;;;;9.38;2.58;;;9.80;99.90;;;;;;4916763;29;20694;-76
2024/02/04 05:23:01;;;;;;;6.97;3.38;;;9.80;99.90;;;;;;4929226;29;20230;-76
2024/02/04 05:25:28;;;;;;;11.90;3.47;;;9.70;99.90;;;;;;4916747;29;20225;-75
2024/02/04 05:27:55;;;;;;;5.00;3.33;;;9.70;99.90;;;;;;4916563;29;20230;-75
2024/02/04 05:30:24;;;;;;;6.05;2.25;;;9.70;99.90;;;;;;4916384;29;20628;-77
2024/02/04 05:32:51;;;;;;;5.85;2.97;;;9.70;99.90;;;;;;4916442;29;20237;-76
2024/02/04 05:35:18;;;;;;;6.88;3.10;;;9.60;99.90;;;;;;4916018;29;20236;-77
2024/02/04 05:37:45;;;;;;;6.13;3.92;;;9.70;99.90;;;;;;4916397;29;20247;-77
2024/02/04 05:40:15;;;;;;;5.00;3.15;;;9.70;99.90;;;;;;4917218;29;20264;-76
2024/02/04 05:42:42;;;;;;;6.90;2.70;;;9.70;99.90;;;;;;4919856;29;20237;-77
2024/02/04 05:45:13;;;;;;;9.27;5.28;;;9.60;99.90;;;;;;4918540;29;20244;-76
2024/02/04 05:47:44;;;;;;;4.63;3.40;;;9.60;99.90;;;;;;4919829;29;20316;-77
2024/02/04 05:50:12;;;;;;;9.32;3.50;;;9.70;99.90;;;;;;4919386;29;20312;-75
2024/02/04 05:52:39;;;;;;;7.18;2.42;;;9.60;99.90;;;;;;4919621;29;20300;-75
2024/02/04 05:55:07;;;;;;;5.00;2.60;;;9.60;99.90;;;;;;4919413;29;20261;-77
2024/02/04 05:57:34;;;;;;;9.30;4.03;;;9.60;99.90;;;;;;4918170;29;20274;-76
2024/02/04 06:00:01;;;;;;;8.73;4.30;;;9.60;99.90;;;;;;4917221;29;20229;-76
2024/02/04 06:02:28;;;;;;;4.57;3.20;;;9.60;99.90;;;;;;4917677;29;20232;-75
2024/02/04 06:04:57;;;;;;;8.63;4.00;;;9.60;99.90;;;;;;4917260;29;20244;-75
2024/02/04 06:07:24;;;;;;;7.50;3.05;;;9.60;99.90;;;;;;4917455;29;20222;-75
2024/02/04 06:09:51;;;;;;;5.05;2.80;;;9.70;99.90;;;;;;4917849;29;20229;-75
2024/02/04 06:12:18;;;;;;;4.45;3.13;;;9.70;99.90;;;;;;4918777;29;20325;-75
2024/02/04 06:14:51;;;;;;;7.95;3.30;;;9.70;99.90;;;;;;4919552;29;20233;-77
2024/02/04 06:17:18;;;;;;;6.40;5.10;;;9.70;99.90;;;;;;4917791;29;20229;-77
2024/02/04 06:19:51;;;;;;;8.02;4.50;;;9.60;99.90;;;;;;4919305;29;20702;-77
2024/02/04 06:22:20;;;;;;;8.98;4.28;;;9.70;99.90;;;;;;4917255;29;20241;-77
2024/02/04 06:27:30;;;;;;;9.63;5.70;;;9.70;99.90;;;;;;4891515;29;20225;-78
2024/02/04 06:30:00;;;;;;;9.07;4.63;;;9.70;99.90;;;;;;4919075;29;20642;-77
2024/02/04 06:32:27;;;;;;;3.65;2.42;;;9.70;99.90;;;;;;4918601;29;20731;-77
2024/02/04 06:34:55;;;;;;;6.18;3.50;;;9.80;99.90;;;;;;4908981;29;20317;-77
2024/02/04 06:37:23;;;;;;;9.68;3.78;;;9.80;99.90;;;;;;4918066;29;20233;-77
2024/02/04 06:39:50;;;;;;;6.22;3.22;;;9.80;99.90;;;;;;4918962;29;20229;-77
2024/02/04 06:42:20;;;;;;;18.65;9.60;;;9.80;99.90;;;;;;4918431;29;20247;-76
2024/02/04 06:44:47;;;;;;;13.30;7.90;;;9.80;99.90;;;;;;4918733;29;20233;-76
2024/02/04 06:47:14;;;;;;;6.32;3.97;;;9.80;99.90;;;;;;4918427;29;20233;-77
2024/02/04 06:49:45;;;;;;;8.35;3.88;;;9.80;99.90;;;;;;4918495;29;20573;-77
2024/02/04 06:52:12;;;;;;;7.40;5.82;;;9.80;99.90;;;;;;4917781;29;20235;-77
2024/02/04 06:54:40;;;;;;;10.50;6.05;;;9.70;99.90;;;;;;4918271;29;20229;-77
2024/02/04 06:57:07;;;;;;;7.13;3.60;;;9.70;99.90;;;;;;4918890;29;20243;-78
2024/02/04 06:59:34;;;;;;;5.53;4.35;;;9.80;99.90;;;;;;4917948;29;20233;-77
2024/02/04 07:02:04;;;;;;;8.57;4.90;;;9.80;99.90;;;;;;4918377;29;20230;-76
2024/02/04 07:04:31;;;;;;;5.97;3.63;;;9.80;99.90;;;;;;4917898;29;20256;-76
2024/02/04 07:06:58;;;;;;;8.32;5.95;;;9.70;99.90;;;;;;4918620;29;20221;-76
2024/02/04 07:09:25;;;;;;;6.43;4.80;;;9.70;99.90;;;;;;4916686;29;20236;-76
2024/02/04 07:11:54;;;;;;;8.38;4.97;;;9.70;99.90;;;;;;4917595;29;20304;-77
2024/02/04 07:14:22;;;;;;;7.70;4.90;;;9.80;99.90;;;;;;4917423;29;20228;-76
2024/02/04 07:16:49;;;;;;;9.20;5.57;;;9.80;99.90;;;;;;4918017;29;20312;-77
2024/02/04 07:19:19;;;;;;;18.55;9.85;;;9.80;99.90;;;;;;4918260;29;20222;-77
2024/02/04 07:21:46;;;;;;;8.70;5.20;;;9.80;99.90;;;;;;4917862;29;20248;-77
2024/02/04 07:24:13;;;;;;;7.72;4.95;;;9.80;99.90;;;;;;4918411;29;20268;-76
2024/02/04 07:26:43;;;;;;;5.78;5.03;;;9.80;99.90;;;;;;4918154;29;20639;-76
2024/02/04 07:29:13;;;;;;;10.23;4.82;;;9.80;99.90;;;;;;4918051;29;20249;-76
2024/02/04 07:31:40;;;;;;;7.82;5.20;;;9.80;99.90;;;;;;4917970;29;20629;-75
2024/02/04 07:34:07;;;;;;;7.03;5.00;;;9.80;99.90;;;;;;4917957;29;20225;-76
2024/02/04 07:36:35;;;;;;;14.68;7.05;;;9.80;99.90;;;;;;4917152;29;20684;-78
2024/02/04 07:39:04;;;;;;;9.93;4.82;;;9.80;99.90;;;;;;4918285;29;20229;-77
2024/02/04 07:41:31;;;;;;;6.35;3.65;;;9.80;99.90;;;;;;4917955;29;20692;-76
2024/02/04 07:44:01;;;;;;;9.02;5.20;;;9.80;99.90;;;;;;4917984;29;20313;-77
2024/02/04 07:46:37;;;;;;;12.35;5.05;;;9.80;99.90;;;;;;4917820;29;20233;-76
2024/02/04 07:49:04;;;;;;;10.82;5.60;;;9.80;99.90;;;;;;4916975;29;20229;-76
2024/02/04 07:51:36;;;;;;;9.88;5.03;;;9.80;99.90;;;;;;4916822;29;20571;-76
2024/02/04 07:54:03;;;;;;;6.10;4.70;;;9.80;99.90;;;;;;4917998;29;20233;-76
2024/02/04 07:56:30;;;;;;;9.30;5.00;;;9.90;99.90;;;;;;4916964;29;20309;-77
2024/02/04 07:58:57;;;;;;;9.60;5.68;;;9.90;99.90;;;;;;4917701;29;20249;-76
2024/02/04 08:01:24;;;;;;;6.32;4.88;;;9.90;99.90;;;;;;4917339;29;20434;-78
2024/02/04 08:03:52;;;;;;;10.10;5.63;;;9.90;99.90;;;;;;4916685;29;20277;-78
2024/02/04 08:06:20;;;;;;;16.65;5.25;;;10.00;99.90;;;;;;4917763;29;20229;-78
2024/02/04 08:08:47;;;;;;;5.43;4.72;;;10.00;99.90;;;;;;4917179;29;20249;-78
2024/02/04 08:11:18;;;;;;;8.45;4.93;;;10.00;99.90;;;;;;4917404;29;20229;-76
2024/02/04 08:13:54;;;;;;;7.10;5.13;;;10.00;99.90;;;;;;4917132;29;20244;-77
2024/02/04 08:16:23;;;;;;;8.80;5.85;;;10.00;99.90;;;;;;4917687;29;20229;-76
2024/02/04 08:18:50;;;;;;;8.30;5.00;;;10.10;99.90;;;;;;4917663;29;20249;-76
2024/02/04 08:21:21;;;;;;;6.28;5.10;;;10.10;99.90;;;;;;4917948;29;20241;-76
2024/02/04 08:23:48;;;;;;;12.77;5.93;;;10.10;99.90;;;;;;4916985;29;20700;-78
2024/02/04 08:26:15;;;;;;;7.13;5.20;;;10.10;99.90;;;;;;4917254;29;20230;-78
2024/02/04 08:28:42;;;;;;;7.70;5.47;;;10.20;99.90;;;;;;4916838;29;20260;-76
2024/02/04 08:31:10;;;;;;;7.20;4.70;;;10.20;99.90;;;;;;4917192;29;20231;-76
2024/02/04 08:33:37;;;;;;;10.80;5.07;;;10.30;99.90;;;;;;4916692;29;20241;-76
2024/02/04 08:36:10;;;;;;;5.55;4.35;;;10.20;99.90;;;;;;4915913;29;20628;-77
2024/02/04 08:38:41;;;;;;;10.98;6.53;;;10.30;99.90;;;;;;4916088;29;20233;-78
2024/02/04 08:41:08;;;;;;;10.32;5.63;;;10.30;99.90;;;;;;4918167;29;20233;-77
2024/02/04 08:43:35;;;;;;;14.90;6.50;;;10.30;99.90;;;;;;4917639;29;20571;-76
2024/02/04 08:46:08;;;;;;;11.52;4.63;;;10.20;99.90;;;;;;4916966;29;20743;-76
2024/02/04 08:48:36;;;;;;;8.27;4.95;;;10.30;99.90;;;;;;4916589;29;20244;-77
2024/02/04 08:51:11;;;;;;;13.30;6.40;;;10.30;99.90;;;;;;4917586;29;20284;-78
2024/02/04 08:53:38;;;;;;;9.65;4.57;;;10.30;99.90;;;;;;4915196;29;20237;-78
2024/02/04 08:56:08;;;;;;;10.95;4.97;;;10.30;99.90;;;;;;4917516;29;20260;-76
2024/02/04 08:58:36;;;;;;;9.98;3.25;;;10.30;99.90;;;;;;4916740;29;20233;-78
2024/02/04 09:01:07;;;;;;;5.03;3.75;;;10.30;99.90;;;;;;4916395;29;20264;-78
2024/02/04 09:03:41;;;;;;;11.43;4.00;;;10.30;99.90;;;;;;4916558;29;20683;-77
2024/02/04 09:06:08;;;;;;;6.80;3.95;;;10.40;99.90;;;;;;4918349;29;20235;-78
2024/02/04 09:08:35;;;;;;;10.27;3.92;;;10.40;99.90;;;;;;4916865;29;20221;-78
2024/02/04 09:11:02;;;;;;;10.40;3.15;;;10.50;99.90;;;;;;4917283;29;20225;-77
2024/02/04 09:13:31;;;;;;;13.15;3.40;;;10.50;99.90;;;;;;4916672;29;20268;-78
2024/02/04 09:15:58;;;;;;;9.75;4.40;;;10.50;99.90;;;;;;4919151;29;20226;-78
2024/02/04 09:18:25;;;;;;;7.57;3.60;;;10.60;99.90;;;;;;4910324;29;20253;-78
2024/02/04 09:20:52;;;;;;;10.95;4.65;;;10.60;99.90;;;;;;4919514;29;20234;-77
2024/02/04 09:23:22;;;;;;;5.22;2.83;;;10.60;99.90;;;;;;4920446;29;20747;-78
2024/02/04 09:25:49;;;;;;;8.27;3.55;;;10.60;99.90;;;;;;4919727;29;20692;-78
2024/02/04 09:28:16;;;;;;;8.15;3.05;;;10.60;99.90;;;;;;4920384;29;20252;-76
2024/02/04 09:30:44;;;;;;;5.93;4.15;;;10.70;99.90;;;;;;4919789;29;20244;-77
2024/02/04 09:33:11;;;;;;;4.35;3.40;;;10.70;99.90;;;;;;4920090;29;20600;-76
2024/02/04 09:35:39;;;;;;;4.95;2.70;;;10.70;99.90;;;;;;4920119;29;20312;-77
2024/02/04 09:38:06;;;;;;;6.50;3.58;;;10.70;99.90;;;;;;4920160;29;20236;-78
2024/02/04 09:40:36;;;;;;;11.25;3.95;;;10.80;99.90;;;;;;4920066;29;20241;-76
2024/02/04 09:43:04;;;;;;;10.13;4.05;;;10.80;99.90;;;;;;4918858;29;20230;-77
2024/02/04 09:45:31;;;;;;;8.65;3.30;;;10.80;99.90;;;;;;4920055;29;20665;-76
2024/02/04 09:48:05;;;;;;;13.57;5.70;;;10.80;99.90;;;;;;4919621;29;20316;-76
2024/02/04 09:50:35;;;;;;;7.00;4.10;;;10.90;99.90;;;;;;4919847;29;20232;-76
2024/02/04 09:53:04;;;;;;;4.90;2.90;;;10.90;99.90;;;;;;4919877;29;20237;-78
2024/02/04 09:55:32;;;;;;;10.15;4.13;;;10.90;99.90;;;;;;4919394;29;20312;-78
2024/02/04 09:58:01;;;;;;;8.82;3.75;;;11.00;99.90;;;;;;4919213;29;20309;-78
2024/02/04 10:00:30;;;;;;;10.98;4.97;;;11.00;99.90;;;;;;4919724;29;20221;-78
2024/02/04 10:02:58;;;;;;;5.88;3.03;;;11.00;99.90;;;;;;4918588;29;20237;-78
2024/02/04 10:05:26;;;;;;;8.07;3.45;;;11.00;99.90;;;;;;4919548;29;20300;-78
2024/02/04 10:07:53;;;;;;;5.50;2.88;;;11.10;99.90;;;;;;4919485;29;20226;-77
2024/02/04 10:10:20;;;;;;;8.02;2.83;;;11.10;99.90;;;;;;4919642;29;20235;-76
2024/02/04 10:12:48;;;;;;;6.30;2.50;;;11.20;99.90;;;;;;4909295;29;20328;-77
2024/02/04 10:15:18;;;;;;;7.63;4.15;;;11.10;99.90;;;;;;4919080;29;20595;-78
2024/02/04 10:17:47;;;;;;;7.75;3.22;;;11.10;99.90;;;;;;4919495;29;20597;-76
2024/02/04 10:20:16;;;;;;;6.75;2.85;;;11.20;99.90;;;;;;4918954;29;20720;-78
2024/02/04 10:22:44;;;;;;;5.60;2.50;;;11.10;99.90;;;;;;4910475;29;20707;-76
2024/02/04 10:25:12;;;;;;;7.03;3.67;;;11.10;99.90;;;;;;4918619;29;20233;-77
2024/02/04 10:27:42;;;;;;;7.88;3.70;;;11.10;99.90;;;;;;4919054;29;20237;-77
2024/02/04 10:30:14;;;;;;;6.60;3.90;;;11.10;99.90;;;;;;4918811;29;20745;-77
2024/02/04 10:32:42;;;;;;;9.90;3.83;;;11.10;99.90;;;;;;4918691;29;20229;-77
2024/02/04 10:35:09;;;;;;;5.70;2.80;;;11.10;99.90;;;;;;4917903;29;20273;-77
2024/02/04 10:37:36;;;;;;;5.40;3.40;;;11.10;99.90;;;;;;4918920;29;20312;-78
2024/02/04 10:40:11;;;;;;;5.50;2.67;;;11.00;99.90;;;;;;4918750;29;20226;-78
2024/02/04 10:42:40;;;;;;;6.53;3.15;;;11.10;99.90;;;;;;4918687;29;20243;-78
2024/02/04 10:45:10;;;;;;;5.10;2.28;;;11.10;99.90;;;;;;4918329;29;20682;-77
2024/02/04 10:47:42;;;;;;;5.35;3.10;;;11.10;99.90;;;;;;4918855;29;20229;-77
2024/02/04 10:50:10;;;;;;;6.45;2.38;;;11.10;99.90;;;;;;4918147;29;20229;-77
2024/02/04 10:52:39;;;;;;;7.72;3.17;;;11.20;99.90;;;;;;4918447;29;20244;-77
2024/02/04 10:55:10;;;;;;;5.50;3.20;;;11.20;99.90;;;;;;4917718;29;20288;-77
2024/02/04 10:57:38;;;;;;;7.25;3.88;;;11.10;99.90;;;;;;4918840;29;20660;-77
2024/02/04 11:00:08;;;;;;;10.05;5.18;;;11.10;99.90;;;;;;4917924;29;20230;-77
2024/02/04 11:02:37;;;;;;;8.60;2.97;;;11.10;99.90;;;;;;4918567;29;20233;-77
2024/02/04 11:05:05;;;;;;;6.40;3.50;;;11.20;99.90;;;;;;4918085;29;20586;-77
2024/02/04 11:07:38;;;;;;;7.93;4.50;;;11.20;99.90;;;;;;4917839;29;20556;-77
2024/02/04 11:10:05;;;;;;;8.20;3.30;;;11.20;99.90;;;;;;4917873;29;20248;-77
2024/02/04 11:12:38;;;;;;;3.13;2.40;;;11.20;99.90;;;;;;4917953;29;20226;-77
2024/02/04 11:15:08;;;;;;;5.20;2.25;;;11.20;99.90;;;;;;4918073;29;20312;-75
2024/02/04 11:18:26;;;;;;;4.65;2.60;;;11.20;99.90;;;;;;4918912;29;20239;-77
2024/02/04 11:21:20;;;;;;;7.32;2.30;;;11.20;99.90;;;;;;4917800;29;20296;-77
2024/02/04 11:24:06;;;;;;;5.72;2.00;;;11.30;99.90;;;;;;4918174;29;20667;-75
2024/02/04 11:26:43;;;;;;;3.60;2.45;;;11.30;99.90;;;;;;4917701;29;20750;-76
2024/02/04 11:29:12;;;;;;;4.28;1.85;;;11.30;99.90;;;;;;4918187;29;20640;-77
2024/02/04 11:31:40;;;;;;;5.38;2.40;;;11.20;99.90;;;;;;4918327;29;20632;-77
2024/02/04 11:34:07;;;;;;;4.63;2.92;;;11.20;99.90;;;;;;4916246;29;20226;-77
2024/02/04 11:36:41;;;;;;;6.30;2.38;;;11.20;99.90;;;;;;4896539;29;20237;-75
2024/02/04 11:39:23;;;;;;;3.65;1.95;;;11.30;99.90;;;;;;4908178;29;20584;-75
2024/02/04 11:41:51;;;;;;;8.48;4.38;;;11.30;99.90;;;;;;4916947;29;20246;-76
2024/02/04 11:44:23;;;;;;;4.60;2.30;;;11.20;99.90;;;;;;4917954;29;20292;-77
2024/02/04 11:46:51;;;;;;;12.10;3.53;;;11.20;99.90;;;;;;4917275;29;20225;-77
2024/02/04 11:49:19;;;;;;;5.30;2.20;;;11.20;99.90;;;;;;4917659;29;20233;-77
2024/02/04 11:51:49;;;;;;;6.55;1.75;;;11.30;99.90;;;;;;4917201;29;20288;-77
2024/02/04 11:54:19;;;;;;;7.22;2.13;;;11.30;99.90;;;;;;4917442;29;20221;-77
2024/02/04 11:56:52;;;;;;;4.80;1.88;;;11.30;99.90;;;;;;4917050;29;20320;-77
2024/02/04 11:59:27;;;;;;;5.50;2.50;;;11.30;99.90;;;;;;4917411;29;20278;-77
2024/02/04 12:01:56;;;;;;;13.95;3.38;;;11.30;99.90;;;;;;4917061;29;20224;-77
2024/02/04 12:04:29;;;;;;;4.35;2.00;;;11.30;99.90;;;;;;4917360;29;20226;-77
2024/02/04 12:06:57;;;;;;;7.53;2.05;;;11.30;99.90;;;;;;4917162;29;20655;-77
2024/02/04 12:09:28;;;;;;;4.88;2.67;;;11.30;99.90;;;;;;4917481;29;20229;-77
2024/02/04 12:11:55;;;;;;;4.70;2.08;;;11.30;99.90;;;;;;4916739;29;20218;-76
2024/02/04 12:14:23;;;;;;;4.43;2.20;;;11.20;99.90;;;;;;4917417;29;20221;-76
2024/02/04 12:16:52;;;;;;;4.25;2.10;;;11.20;99.90;;;;;;4916114;29;20225;-76
2024/02/04 12:19:19;;;;;;;6.40;2.70;;;11.20;99.90;;;;;;4917153;29;20225;-76
2024/02/04 12:21:46;;;;;;;11.70;2.90;;;11.10;99.90;;;;;;4916662;29;20255;-76
2024/02/04 12:24:13;;;;;;;7.32;2.67;;;11.10;99.90;;;;;;4917171;29;20230;-76
2024/02/04 12:26:40;;;;;;;3.90;2.70;;;11.00;99.90;;;;;;4916787;29;20565;-76
2024/02/04 12:29:08;;;;;;;4.95;2.50;;;11.00;99.90;;;;;;4917253;29;20226;-76
2024/02/04 12:31:35;;;;;;;3.78;2.20;;;11.00;99.90;;;;;;4916096;29;20236;-78
2024/02/04 12:34:06;;;;;;;6.15;2.97;;;11.00;99.90;;;;;;4916397;29;20292;-77
2024/02/04 12:36:34;;;;;;;4.82;2.10;;;10.80;99.90;;;;;;4916914;29;20229;-78
2024/02/04 12:39:03;;;;;;;10.90;2.83;;;10.90;99.90;;;;;;4916812;29;20226;-77
2024/02/04 12:41:30;;;;;;;9.73;6.40;;;10.80;99.90;;;;;;4916784;29;20236;-76
2024/02/04 12:44:00;;;;;;;6.43;3.20;;;10.80;99.90;;;;;;4916623;29;20276;-76
2024/02/04 12:46:27;;;;;;;5.65;2.83;;;10.80;99.90;;;;;;4917283;29;20332;-76
2024/02/04 12:48:55;;;;;;;3.45;2.03;;;10.80;99.90;;;;;;4917045;29;20240;-75
2024/02/04 12:51:27;;;;;;;7.63;2.35;;;10.80;99.90;;;;;;4920211;29;20260;-75
2024/02/04 12:54:05;;;;;;;6.28;2.40;;;10.70;99.90;;;;;;4917132;29;20239;-76
2024/02/04 12:56:48;;;;;;;2.97;1.88;;;10.80;99.90;;;;;;4920869;29;20236;-77
2024/02/04 12:59:26;;;;;;;5.82;2.47;;;10.80;99.90;;;;;;4921348;29;20240;-77
2024/02/04 13:02:00;;;;;;;7.45;2.47;;;10.70;99.90;;;;;;4916341;29;20225;-77